Time;durP1;ratioP1;P1;durP2;ratioP2;P2;SDS_P1;SDS_P2;PMS_P1;PMS_P2;Temp;Humidity;BMP_temperature;BMP_pressure;BME280_temperature;BME280_humidity;BME280_pressure;Samples;Min_cycle;Max_cycle;Signal;HPM_P1;HPM_P2
2021/08/06 00:00:00;;;;;;;5.32;2.47;;;;;;;;;;4986268;28;20071;-52
2021/08/06 00:02:26;;;;;;;5.85;2.72;;;;;;;;;;4987386;28;20057;-50
2021/08/06 00:04:53;;;;;;;12.32;2.60;;;;;;;;;;5004370;28;20088;-50
2021/08/06 00:07:21;;;;;;;4.72;2.63;;;;;;;;;;4998608;28;20038;-50
2021/08/06 00:09:47;;;;;;;6.38;2.58;;;;;;;;;;4985578;28;20038;-50
2021/08/06 00:12:15;;;;;;;5.38;2.40;;;;;;;;;;4982852;28;20042;-52
2021/08/06 00:14:42;;;;;;;5.32;2.60;;;;;;;;;;4983842;28;20030;-49
2021/08/06 00:17:08;;;;;;;5.30;2.78;;;;;;;;;;4986503;28;20035;-49
2021/08/06 00:19:35;;;;;;;5.13;2.80;;;;;;;;;;4983219;28;20050;-51
2021/08/06 00:22:01;;;;;;;5.55;2.60;;;;;;;;;;4986117;28;20042;-52
2021/08/06 00:24:28;;;;;;;5.18;2.60;;;;;;;;;;4981138;28;20078;-50
2021/08/06 00:26:54;;;;;;;5.35;2.53;;;;;;;;;;4984870;28;20074;-48
2021/08/06 00:29:23;;;;;;;6.57;2.25;;;;;;;;;;4994633;28;20042;-53
2021/08/06 00:31:49;;;;;;;4.95;2.33;;;;;;;;;;5004010;28;20053;-53
2021/08/06 00:34:17;;;;;;;4.85;2.45;;;;;;;;;;5002223;28;20116;-49
2021/08/06 00:36:43;;;;;;;5.32;2.30;;;;;;;;;;5020262;28;20038;-52
2021/08/06 00:39:09;;;;;;;5.22;2.35;;;;;;;;;;5008397;28;20035;-50
2021/08/06 00:41:36;;;;;;;7.55;2.47;;;;;;;;;;4999320;28;20045;-49
2021/08/06 00:44:03;;;;;;;5.00;2.33;;;;;;;;;;4994669;28;20042;-51
2021/08/06 00:46:30;;;;;;;7.07;2.47;;;;;;;;;;4984487;28;20042;-50
2021/08/06 00:48:57;;;;;;;6.40;2.60;;;;;;;;;;4997842;28;20058;-50
2021/08/06 00:51:24;;;;;;;5.32;2.92;;;;;;;;;;4984199;28;20042;-53
2021/08/06 00:53:50;;;;;;;5.57;2.72;;;;;;;;;;4980767;28;20049;-54
2021/08/06 00:56:18;;;;;;;8.10;2.65;;;;;;;;;;5019463;28;20053;-50
2021/08/06 00:58:44;;;;;;;6.72;2.38;;;;;;;;;;5004710;28;20038;-52
2021/08/06 01:01:11;;;;;;;6.88;2.28;;;;;;;;;;4999741;28;20055;-47
2021/08/06 01:03:42;;;;;;;5.60;2.50;;;;;;;;;;4983120;28;20128;-51
2021/08/06 01:06:10;;;;;;;6.75;2.95;;;;;;;;;;4998978;28;20042;-48
2021/08/06 01:08:40;;;;;;;8.25;2.90;;;;;;;;;;4983953;28;20038;-47
2021/08/06 01:11:08;;;;;;;7.05;2.45;;;;;;;;;;4981089;28;20051;-47
2021/08/06 01:13:39;;;;;;;6.75;2.80;;;;;;;;;;4985526;28;20043;-48
2021/08/06 01:16:08;;;;;;;5.60;2.92;;;;;;;;;;4992198;28;20049;-50
2021/08/06 01:18:35;;;;;;;5.05;2.60;;;;;;;;;;5020085;28;20050;-50
2021/08/06 01:21:09;;;;;;;4.63;2.33;;;;;;;;;;5004453;28;20051;-53
2021/08/06 01:23:36;;;;;;;5.43;2.35;;;;;;;;;;5000222;28;20045;-49
2021/08/06 01:26:05;;;;;;;4.47;2.50;;;;;;;;;;4988375;28;20061;-48
2021/08/06 01:28:33;;;;;;;;;;;;;;;;;;4989400;28;20058;-50
2021/08/06 01:31:00;;;;;;;6.60;2.42;;;;;;;;;;4985860;28;19926;-52
2021/08/06 01:33:26;;;;;;;6.88;2.58;;;;;;;;;;5002176;28;20037;-51
2021/08/06 01:35:53;;;;;;;5.35;2.78;;;;;;;;;;4996589;28;20043;-50
2021/08/06 01:38:20;;;;;;;5.30;2.50;;;;;;;;;;4983711;28;20042;-51
2021/08/06 01:40:51;;;;;;;5.43;2.65;;;;;;;;;;4985194;28;20052;-50
2021/08/06 01:43:20;;;;;;;8.13;2.90;;;;;;;;;;4983325;28;20053;-52
2021/08/06 01:45:50;;;;;;;9.35;2.97;;;;;;;;;;4980858;28;20053;-53
2021/08/06 01:48:19;;;;;;;5.57;2.75;;;;;;;;;;4963636;28;20112;-49
2021/08/06 01:50:47;;;;;;;6.97;2.78;;;;;;;;;;4963146;28;20038;-50
2021/08/06 01:53:14;;;;;;;6.32;3.40;;;;;;;;;;5013847;28;20135;-50
2021/08/06 01:55:43;;;;;;;6.17;2.70;;;;;;;;;;5019589;28;20136;-49
2021/08/06 01:58:11;;;;;;;5.60;2.80;;;;;;;;;;5015013;28;20283;-50
2021/08/06 02:00:40;;;;;;;9.40;2.67;;;;;;;;;;5019386;28;20076;-52
2021/08/06 02:03:06;;;;;;;5.05;2.70;;;;;;;;;;4982967;28;20061;-51
2021/08/06 02:05:34;;;;;;;8.25;2.90;;;;;;;;;;4983034;28;20050;-48
2021/08/06 02:08:01;;;;;;;5.15;2.58;;;;;;;;;;4980000;28;20058;-48
2021/08/06 02:10:29;;;;;;;5.45;2.65;;;;;;;;;;4983469;28;20035;-50
2021/08/06 02:12:55;;;;;;;6.15;2.78;;;;;;;;;;4979626;28;20041;-48
2021/08/06 02:15:22;;;;;;;5.72;2.83;;;;;;;;;;4983147;28;20066;-50
2021/08/06 02:17:51;;;;;;;6.43;2.65;;;;;;;;;;4987104;28;20034;-50
2021/08/06 02:20:17;;;;;;;5.78;2.55;;;;;;;;;;5002458;28;20066;-52
2021/08/06 02:22:45;;;;;;;4.47;2.53;;;;;;;;;;4997855;28;20042;-49
2021/08/06 02:25:13;;;;;;;3.65;2.22;;;;;;;;;;5019044;28;20053;-51
2021/08/06 02:27:40;;;;;;;8.52;2.95;;;;;;;;;;4995416;28;20041;-54
2021/08/06 02:30:07;;;;;;;4.40;2.23;;;;;;;;;;4983263;28;20095;-52
2021/08/06 02:32:34;;;;;;;4.75;2.10;;;;;;;;;;4980965;28;20050;-51
2021/08/06 02:35:02;;;;;;;6.30;2.38;;;;;;;;;;4999095;28;20034;-52
2021/08/06 02:37:30;;;;;;;;;;;;;;;;;;5001981;28;20042;-48
2021/08/06 02:39:56;;;;;;;5.93;2.13;;;;;;;;;;4976840;28;19922;-50
2021/08/06 02:42:23;;;;;;;4.60;2.00;;;;;;;;;;5002346;28;20046;-49
2021/08/06 02:44:49;;;;;;;8.80;2.30;;;;;;;;;;4985703;28;20043;-47
2021/08/06 02:47:16;;;;;;;4.30;2.30;;;;;;;;;;4983248;28;20106;-46
2021/08/06 02:49:42;;;;;;;4.32;2.15;;;;;;;;;;4993232;28;20034;-47
2021/08/06 02:52:10;;;;;;;4.35;2.28;;;;;;;;;;5019234;28;20042;-49
2021/08/06 02:54:37;;;;;;;6.05;2.50;;;;;;;;;;4989680;28;20116;-50
2021/08/06 02:57:04;;;;;;;4.57;1.67;;;;;;;;;;4982465;28;20042;-49
2021/08/06 02:59:30;;;;;;;4.60;2.33;;;;;;;;;;4980748;28;20046;-51
2021/08/06 03:01:57;;;;;;;5.72;2.33;;;;;;;;;;4984086;28;20038;-48
2021/08/06 03:04:23;;;;;;;5.00;2.10;;;;;;;;;;4982693;28;20330;-51
2021/08/06 03:06:50;;;;;;;4.22;2.30;;;;;;;;;;5001964;28;20031;-48
2021/08/06 03:09:18;;;;;;;7.15;2.10;;;;;;;;;;4994282;28;20046;-49
2021/08/06 03:11:44;;;;;;;5.32;2.58;;;;;;;;;;4981724;28;20075;-50
2021/08/06 03:14:11;;;;;;;5.13;2.35;;;;;;;;;;4980300;28;20042;-51
2021/08/06 03:16:37;;;;;;;4.18;1.90;;;;;;;;;;4995869;28;20053;-51
2021/08/06 03:19:04;;;;;;;5.82;2.30;;;;;;;;;;4982159;28;20062;-51
2021/08/06 03:21:30;;;;;;;5.15;2.50;;;;;;;;;;4978637;28;20042;-47
2021/08/06 03:23:57;;;;;;;6.57;2.20;;;;;;;;;;4980381;28;20051;-48
2021/08/06 03:26:25;;;;;;;5.07;2.15;;;;;;;;;;4979081;28;20046;-51
2021/08/06 03:28:51;;;;;;;3.93;2.13;;;;;;;;;;4998089;28;20053;-48
2021/08/06 03:31:17;;;;;;;4.80;2.35;;;;;;;;;;4978860;28;20358;-49
2021/08/06 03:33:45;;;;;;;4.97;2.58;;;;;;;;;;4965197;28;20039;-50
2021/08/06 03:36:12;;;;;;;5.60;2.15;;;;;;;;;;4992916;28;20046;-50
2021/08/06 03:38:39;;;;;;;6.03;2.38;;;;;;;;;;4998574;28;20050;-47
2021/08/06 03:41:05;;;;;;;5.22;2.10;;;;;;;;;;4986234;28;20037;-53
2021/08/06 03:43:36;;;;;;;5.32;2.30;;;;;;;;;;4980897;28;20042;-51
2021/08/06 03:46:03;;;;;;;4.95;2.40;;;;;;;;;;4982208;28;20042;-51
2021/08/06 03:48:31;;;;;;;5.05;2.42;;;;;;;;;;5002013;28;20053;-50
2021/08/06 03:50:57;;;;;;;4.38;2.20;;;;;;;;;;5013296;28;20144;-53
2021/08/06 03:53:24;;;;;;;3.45;1.80;;;;;;;;;;4974932;28;20051;-50
2021/08/06 03:55:50;;;;;;;8.07;2.50;;;;;;;;;;4984299;28;20057;-51
2021/08/06 03:58:17;;;;;;;3.90;2.10;;;;;;;;;;4982536;28;20054;-48
2021/08/06 04:00:45;;;;;;;6.13;2.05;;;;;;;;;;4982910;28;20070;-49
2021/08/06 04:03:11;;;;;;;7.93;2.83;;;;;;;;;;4982689;28;20057;-50
2021/08/06 04:05:37;;;;;;;6.82;2.70;;;;;;;;;;4984713;28;20034;-52
2021/08/06 04:08:04;;;;;;;10.45;3.10;;;;;;;;;;4996783;28;20046;-47
2021/08/06 04:10:31;;;;;;;5.13;2.45;;;;;;;;;;5011808;28;20042;-49
2021/08/06 04:12:58;;;;;;;6.25;2.60;;;;;;;;;;4996313;28;20031;-47
2021/08/06 04:15:24;;;;;;;5.40;2.40;;;;;;;;;;4984916;28;20046;-48
2021/08/06 04:17:52;;;;;;;3.67;1.73;;;;;;;;;;4982020;28;20052;-50
2021/08/06 04:20:19;;;;;;;3.38;1.70;;;;;;;;;;4985562;28;20057;-48
2021/08/06 04:22:45;;;;;;;5.25;1.85;;;;;;;;;;4982106;28;20047;-46
2021/08/06 04:25:13;;;;;;;4.20;1.90;;;;;;;;;;4985824;28;20113;-50
2021/08/06 04:27:40;;;;;;;4.97;2.00;;;;;;;;;;4987289;28;20046;-49
2021/08/06 04:30:07;;;;;;;5.65;2.00;;;;;;;;;;5004298;28;20042;-48
2021/08/06 04:32:34;;;;;;;3.92;1.77;;;;;;;;;;4998873;28;20073;-48
2021/08/06 04:35:02;;;;;;;3.65;1.40;;;;;;;;;;5005009;28;20042;-50
2021/08/06 04:37:28;;;;;;;2.10;1.35;;;;;;;;;;5000056;28;20054;-50
2021/08/06 04:39:54;;;;;;;3.13;1.48;;;;;;;;;;4983543;28;20364;-47
2021/08/06 04:42:21;;;;;;;5.13;1.70;;;;;;;;;;5020526;28;20036;-51
2021/08/06 04:44:48;;;;;;;3.80;1.63;;;;;;;;;;4984474;28;20043;-49
2021/08/06 04:47:14;;;;;;;3.45;1.70;;;;;;;;;;4985782;28;20038;-48
2021/08/06 04:49:42;;;;;;;2.85;1.38;;;;;;;;;;4995126;28;20046;-49
2021/08/06 04:52:10;;;;;;;4.07;1.70;;;;;;;;;;5005385;28;20042;-49
2021/08/06 04:54:37;;;;;;;1.73;1.23;;;;;;;;;;4999217;28;20045;-50
2021/08/06 04:57:04;;;;;;;4.82;1.58;;;;;;;;;;5003865;28;20042;-48
2021/08/06 04:59:31;;;;;;;2.78;1.40;;;;;;;;;;4991148;28;20133;-52
2021/08/06 05:01:58;;;;;;;5.10;1.92;;;;;;;;;;4983031;28;20079;-49
2021/08/06 05:04:24;;;;;;;4.47;1.75;;;;;;;;;;4987529;28;20042;-50
2021/08/06 05:06:51;;;;;;;3.33;1.67;;;;;;;;;;4995549;28;20128;-52
2021/08/06 05:09:18;;;;;;;3.72;1.83;;;;;;;;;;4980158;28;20035;-52
2021/08/06 05:11:45;;;;;;;2.78;1.45;;;;;;;;;;4999558;28;20038;-48
2021/08/06 05:14:12;;;;;;;2.72;1.40;;;;;;;;;;4983122;28;20061;-48
2021/08/06 05:16:38;;;;;;;5.57;2.28;;;;;;;;;;5003227;28;20066;-52
2021/08/06 05:19:04;;;;;;;5.57;2.40;;;;;;;;;;5001342;28;20061;-50
2021/08/06 05:21:31;;;;;;;3.60;1.60;;;;;;;;;;4977982;28;20042;-52
2021/08/06 05:23:57;;;;;;;3.25;1.40;;;;;;;;;;4982774;28;20042;-50
2021/08/06 05:26:25;;;;;;;2.15;1.30;;;;;;;;;;4978111;28;20038;-50
2021/08/06 05:28:53;;;;;;;5.55;1.48;;;;;;;;;;4978227;28;20063;-49
2021/08/06 05:31:20;;;;;;;2.67;1.60;;;;;;;;;;4979689;28;20050;-52
2021/08/06 05:33:47;;;;;;;4.40;1.35;;;;;;;;;;4979798;28;20050;-49
2021/08/06 05:36:14;;;;;;;5.05;2.00;;;;;;;;;;4979328;28;20075;-49
2021/08/06 05:38:40;;;;;;;7.45;1.70;;;;;;;;;;4990417;28;20053;-55
2021/08/06 05:41:08;;;;;;;9.30;2.03;;;;;;;;;;4992642;28;20050;-52
2021/08/06 05:43:36;;;;;;;6.75;1.80;;;;;;;;;;4980987;28;20042;-50
2021/08/06 05:46:02;;;;;;;6.50;2.20;;;;;;;;;;4987432;28;20046;-52
2021/08/06 05:48:29;;;;;;;4.30;2.25;;;;;;;;;;4978498;28;20280;-51
2021/08/06 05:50:55;;;;;;;3.08;1.77;;;;;;;;;;4994139;28;20136;-53
2021/08/06 05:53:22;;;;;;;4.95;1.70;;;;;;;;;;4998068;28;20034;-48
2021/08/06 05:55:48;;;;;;;4.90;1.52;;;;;;;;;;4978348;28;20098;-50
2021/08/06 05:58:15;;;;;;;4.90;1.90;;;;;;;;;;4977768;28;20039;-52
2021/08/06 06:00:43;;;;;;;7.25;2.38;;;;;;;;;;4979235;28;20038;-52
2021/08/06 06:03:09;;;;;;;9.75;5.15;;;;;;;;;;4996675;28;20058;-49
2021/08/06 06:05:35;;;;;;;5.57;3.08;;;;;;;;;;4980174;28;20042;-49
2021/08/06 06:08:02;;;;;;;4.75;2.38;;;;;;;;;;4980457;28;20050;-49
2021/08/06 06:10:29;;;;;;;4.30;2.05;;;;;;;;;;4980686;28;20078;-55
2021/08/06 06:12:56;;;;;;;5.15;1.90;;;;;;;;;;4974859;28;20047;-49
2021/08/06 06:15:23;;;;;;;3.80;1.58;;;;;;;;;;4982666;28;20054;-51
2021/08/06 06:17:51;;;;;;;3.08;1.40;;;;;;;;;;4990331;28;20046;-49
2021/08/06 06:20:18;;;;;;;2.60;1.37;;;;;;;;;;5002437;28;20038;-51
2021/08/06 06:22:44;;;;;;;3.38;1.55;;;;;;;;;;4998929;28;20295;-49
2021/08/06 06:25:11;;;;;;;3.00;1.45;;;;;;;;;;5004060;28;20082;-50
2021/08/06 06:27:46;;;;;;;3.53;1.77;;;;;;;;;;4992106;28;20034;-51
2021/08/06 06:30:13;;;;;;;9.43;2.17;;;;;;;;;;4983468;28;20046;-53
2021/08/06 06:32:40;;;;;;;4.88;2.03;;;;;;;;;;4978008;28;20049;-56
2021/08/06 06:35:08;;;;;;;4.47;2.15;;;;;;;;;;4981827;28;20042;-51
2021/08/06 06:37:35;;;;;;;6.00;2.17;;;;;;;;;;4979782;28;20039;-54
2021/08/06 06:40:01;;;;;;;4.72;1.83;;;;;;;;;;4981860;28;20057;-53
2021/08/06 06:42:28;;;;;;;4.57;1.58;;;;;;;;;;4977804;28;20039;-50
2021/08/06 06:44:54;;;;;;;5.22;2.38;;;;;;;;;;4982797;28;20097;-50
2021/08/06 06:47:21;;;;;;;3.25;1.65;;;;;;;;;;4981692;28;20042;-52
2021/08/06 06:49:47;;;;;;;3.03;1.70;;;;;;;;;;4981472;28;20057;-50
2021/08/06 06:52:15;;;;;;;4.50;2.30;;;;;;;;;;4983243;28;20046;-50
2021/08/06 06:54:42;;;;;;;8.55;3.53;;;;;;;;;;4994125;28;20133;-52
2021/08/06 06:57:08;;;;;;;7.63;3.70;;;;;;;;;;4984625;28;20058;-50
2021/08/06 06:59:35;;;;;;;6.43;2.70;;;;;;;;;;4979933;28;20051;-50
2021/08/06 07:02:02;;;;;;;4.10;2.40;;;;;;;;;;4982979;28;20035;-51
2021/08/06 07:04:29;;;;;;;4.32;2.20;;;;;;;;;;4980422;28;20047;-49
2021/08/06 07:06:55;;;;;;;4.63;2.35;;;;;;;;;;4981449;28;20105;-51
2021/08/06 07:09:23;;;;;;;5.07;2.28;;;;;;;;;;4987637;28;20042;-52
2021/08/06 07:11:50;;;;;;;5.53;2.67;;;;;;;;;;4979155;28;20036;-49
2021/08/06 07:14:16;;;;;;;4.82;2.60;;;;;;;;;;4968124;28;20043;-54
2021/08/06 07:16:43;;;;;;;4.60;2.70;;;;;;;;;;4984010;28;20047;-51
2021/08/06 07:19:09;;;;;;;5.70;3.03;;;;;;;;;;4981627;28;20045;-53
2021/08/06 07:21:36;;;;;;;6.35;3.28;;;;;;;;;;5002064;28;20042;-53
2021/08/06 07:24:02;;;;;;;6.65;3.30;;;;;;;;;;4999455;28;20034;-48
2021/08/06 07:26:31;;;;;;;6.20;3.67;;;;;;;;;;5006061;28;20056;-53
2021/08/06 07:28:57;;;;;;;7.07;3.88;;;;;;;;;;5006560;28;20057;-49
2021/08/06 07:31:24;;;;;;;9.95;3.70;;;;;;;;;;5016587;28;20042;-48
2021/08/06 07:33:51;;;;;;;7.97;3.90;;;;;;;;;;5005193;28;20046;-52
2021/08/06 07:36:18;;;;;;;6.78;3.53;;;;;;;;;;4985501;28;20046;-54
2021/08/06 07:38:44;;;;;;;6.47;3.60;;;;;;;;;;5001983;28;20035;-50
2021/08/06 07:41:10;;;;;;;7.35;3.47;;;;;;;;;;4993334;28;20054;-52
2021/08/06 07:43:38;;;;;;;5.28;3.15;;;;;;;;;;5020280;28;20046;-53
2021/08/06 07:46:05;;;;;;;11.57;3.65;;;;;;;;;;5005747;28;20050;-53
2021/08/06 07:48:31;;;;;;;7.13;3.13;;;;;;;;;;4985406;28;20121;-55
2021/08/06 07:50:58;;;;;;;7.50;3.60;;;;;;;;;;4981797;28;20046;-50
2021/08/06 07:53:26;;;;;;;5.68;3.22;;;;;;;;;;4984970;28;20060;-52
2021/08/06 07:55:52;;;;;;;9.47;3.50;;;;;;;;;;4987303;28;20127;-52
2021/08/06 07:58:19;;;;;;;10.88;3.78;;;;;;;;;;5006546;28;20042;-52
2021/08/06 08:00:47;;;;;;;7.80;3.55;;;;;;;;;;4999879;28;20057;-51
2021/08/06 08:03:14;;;;;;;8.45;3.20;;;;;;;;;;5004145;28;20046;-50
2021/08/06 08:05:40;;;;;;;7.38;3.53;;;;;;;;;;5000655;28;20042;-53
2021/08/06 08:08:07;;;;;;;10.88;4.88;;;;;;;;;;4984374;28;20090;-49
2021/08/06 08:10:33;;;;;;;10.30;4.50;;;;;;;;;;4984919;28;20045;-53
2021/08/06 08:12:59;;;;;;;8.25;3.92;;;;;;;;;;5015991;28;20045;-51
2021/08/06 08:15:27;;;;;;;9.98;3.35;;;;;;;;;;5004362;28;20100;-53
2021/08/06 08:17:55;;;;;;;9.15;3.40;;;;;;;;;;4985115;28;20059;-54
2021/08/06 08:20:21;;;;;;;8.23;3.25;;;;;;;;;;5000695;28;20049;-55
2021/08/06 08:22:48;;;;;;;6.82;3.10;;;;;;;;;;4992970;28;20181;-52
2021/08/06 08:25:17;;;;;;;7.30;3.22;;;;;;;;;;5020400;28;20042;-50
2021/08/06 08:27:43;;;;;;;10.88;4.10;;;;;;;;;;4999463;28;20046;-51
2021/08/06 08:30:10;;;;;;;8.52;3.45;;;;;;;;;;5020978;28;20140;-53
2021/08/06 08:32:38;;;;;;;10.38;4.28;;;;;;;;;;4992402;28;20058;-48
2021/08/06 08:35:07;;;;;;;8.60;3.95;;;;;;;;;;4982613;28;20087;-51
2021/08/06 08:37:33;;;;;;;8.60;4.32;;;;;;;;;;4987598;28;20058;-50
2021/08/06 08:40:02;;;;;;;11.18;3.55;;;;;;;;;;5000868;28;20131;-50
2021/08/06 08:42:29;;;;;;;5.82;3.80;;;;;;;;;;4980358;28;20061;-50
2021/08/06 08:45:01;;;;;;;10.43;4.13;;;;;;;;;;4984132;28;20043;-52
2021/08/06 08:47:28;;;;;;;7.95;3.58;;;;;;;;;;4982258;28;20054;-51
2021/08/06 08:49:54;;;;;;;7.82;3.55;;;;;;;;;;5020487;28;20038;-51
2021/08/06 08:52:22;;;;;;;7.80;3.50;;;;;;;;;;5001713;28;20045;-51
2021/08/06 08:54:50;;;;;;;8.73;3.30;;;;;;;;;;4982989;28;20047;-51
2021/08/06 08:57:18;;;;;;;6.10;3.17;;;;;;;;;;4983225;28;20058;-55
2021/08/06 08:59:45;;;;;;;7.75;3.22;;;;;;;;;;4983306;28;20038;-52
2021/08/06 09:02:11;;;;;;;9.05;3.20;;;;;;;;;;5000805;28;20054;-50
2021/08/06 09:04:39;;;;;;;6.40;3.28;;;;;;;;;;4997072;28;20054;-50
2021/08/06 09:07:06;;;;;;;4.78;2.83;;;;;;;;;;4986902;28;20067;-47
2021/08/06 09:09:34;;;;;;;8.23;3.00;;;;;;;;;;4992470;28;20034;-51
2021/08/06 09:12:04;;;;;;;9.00;2.90;;;;;;;;;;4984420;28;20078;-51
2021/08/06 09:14:31;;;;;;;8.63;2.80;;;;;;;;;;4980791;28;20034;-51
2021/08/06 09:16:59;;;;;;;5.50;2.20;;;;;;;;;;4984552;28;20058;-51
2021/08/06 09:19:26;;;;;;;7.50;2.38;;;;;;;;;;4978111;28;20074;-49
2021/08/06 09:21:53;;;;;;;5.72;1.98;;;;;;;;;;4982633;28;20043;-51
2021/08/06 09:24:20;;;;;;;5.68;2.53;;;;;;;;;;4979927;28;20054;-52
2021/08/06 09:26:48;;;;;;;8.23;2.45;;;;;;;;;;4999034;28;20035;-52
2021/08/06 09:29:17;;;;;;;5.38;2.03;;;;;;;;;;4979381;28;20046;-51
2021/08/06 09:31:44;;;;;;;4.78;2.40;;;;;;;;;;4983401;28;20026;-49
2021/08/06 09:34:23;;;;;;;6.97;2.60;;;;;;;;;;4980923;28;20051;-51
2021/08/06 09:37:00;;;;;;;9.10;2.40;;;;;;;;;;4983572;28;20070;-49
2021/08/06 09:39:30;;;;;;;5.50;2.15;;;;;;;;;;4980148;28;20050;-54
2021/08/06 09:41:57;;;;;;;4.43;2.28;;;;;;;;;;5001535;28;20034;-53
2021/08/06 09:44:26;;;;;;;7.55;2.20;;;;;;;;;;5000132;28;20038;-51
2021/08/06 09:46:52;;;;;;;4.18;1.80;;;;;;;;;;4963170;28;20121;-54
2021/08/06 09:49:19;;;;;;;7.15;2.30;;;;;;;;;;4992747;28;20054;-49
2021/08/06 09:51:46;;;;;;;7.88;3.35;;;;;;;;;;4997086;28;20049;-50
2021/08/06 09:54:23;;;;;;;9.30;3.30;;;;;;;;;;4984163;28;20058;-52
2021/08/06 09:57:00;;;;;;;5.68;2.25;;;;;;;;;;4995829;28;20046;-52
2021/08/06 09:59:30;;;;;;;5.10;1.80;;;;;;;;;;5003623;28;20034;-49
2021/08/06 10:02:13;;;;;;;12.90;2.30;;;;;;;;;;4983992;28;20046;-50
2021/08/06 10:04:41;;;;;;;5.05;2.17;;;;;;;;;;4983315;28;20117;-52
2021/08/06 10:07:08;;;;;;;6.57;2.05;;;;;;;;;;4981012;28;20038;-53
2021/08/06 10:09:35;;;;;;;5.93;1.88;;;;;;;;;;4985261;28;20043;-54
2021/08/06 10:12:02;;;;;;;7.93;2.33;;;;;;;;;;4979589;28;20042;-50
2021/08/06 10:14:30;;;;;;;4.13;2.05;;;;;;;;;;4982833;28;20038;-50
2021/08/06 10:17:00;;;;;;;4.78;2.00;;;;;;;;;;4995093;28;20049;-50
2021/08/06 10:19:27;;;;;;;5.05;1.80;;;;;;;;;;4984019;28;20090;-53
2021/08/06 10:21:53;;;;;;;7.22;2.20;;;;;;;;;;4979680;28;20035;-48
2021/08/06 10:24:21;;;;;;;4.82;1.90;;;;;;;;;;4984541;28;20054;-52
2021/08/06 10:26:48;;;;;;;7.77;1.93;;;;;;;;;;4986026;28;20050;-52
2021/08/06 10:29:15;;;;;;;6.88;1.77;;;;;;;;;;5001294;28;20308;-49
2021/08/06 10:31:43;;;;;;;7.15;1.55;;;;;;;;;;4996145;28;20061;-52
2021/08/06 10:34:11;;;;;;;6.07;1.50;;;;;;;;;;4999100;28;20046;-51
2021/08/06 10:36:38;;;;;;;3.38;1.42;;;;;;;;;;4981941;28;20039;-50
2021/08/06 10:39:04;;;;;;;5.68;1.50;;;;;;;;;;4984286;28;20035;-51
2021/08/06 10:41:48;;;;;;;3.53;1.30;;;;;;;;;;4983354;28;20121;-50
2021/08/06 10:44:15;;;;;;;4.22;1.17;;;;;;;;;;4980135;28;20117;-50
2021/08/06 10:47:06;;;;;;;5.93;1.60;;;;;;;;;;4963083;28;20039;-50
2021/08/06 10:49:34;;;;;;;4.25;1.30;;;;;;;;;;4948638;28;20035;-48
2021/08/06 10:52:18;;;;;;;3.70;1.35;;;;;;;;;;4977257;28;20129;-53
2021/08/06 10:54:44;;;;;;;3.10;1.33;;;;;;;;;;4982052;28;20070;-50
2021/08/06 10:57:22;;;;;;;5.55;1.70;;;;;;;;;;4981493;28;20150;-51
2021/08/06 10:59:49;;;;;;;3.43;1.40;;;;;;;;;;4961922;28;20050;-52
2021/08/06 11:02:34;;;;;;;3.83;1.63;;;;;;;;;;4963278;28;20094;-51
2021/08/06 11:05:02;;;;;;;7.30;2.28;;;;;;;;;;4978213;28;20047;-49
2021/08/06 11:07:32;;;;;;;6.15;1.60;;;;;;;;;;4978798;28;20055;-52
2021/08/06 11:09:59;;;;;;;6.97;1.90;;;;;;;;;;4978525;28;20053;-49
2021/08/06 11:12:30;;;;;;;5.05;1.48;;;;;;;;;;4998832;28;20039;-49
2021/08/06 11:14:59;;;;;;;4.75;1.33;;;;;;;;;;4979378;28;20053;-52
2021/08/06 11:17:25;;;;;;;5.65;1.40;;;;;;;;;;4982845;28;20165;-51
2021/08/06 11:19:52;;;;;;;5.00;1.35;;;;;;;;;;4979547;28;20039;-52
2021/08/06 11:22:26;;;;;;;4.00;1.55;;;;;;;;;;4980615;28;20118;-49
2021/08/06 11:24:54;;;;;;;3.40;1.60;;;;;;;;;;4981065;28;20046;-53
2021/08/06 11:27:22;;;;;;;7.93;1.60;;;;;;;;;;4981852;28;20039;-50
2021/08/06 11:29:58;;;;;;;2.58;1.33;;;;;;;;;;4989555;28;20054;-51
2021/08/06 11:32:25;;;;;;;3.38;1.38;;;;;;;;;;4981383;28;20030;-53
2021/08/06 11:34:52;;;;;;;3.63;1.42;;;;;;;;;;4952298;28;20047;-53
2021/08/06 11:37:19;;;;;;;4.45;1.50;;;;;;;;;;4981923;28;20046;-50
2021/08/06 11:40:07;;;;;;;3.03;1.55;;;;;;;;;;4977582;28;20054;-49
2021/08/06 11:42:34;;;;;;;7.72;2.45;;;;;;;;;;4982183;28;20039;-52
2021/08/06 11:45:01;;;;;;;3.97;1.70;;;;;;;;;;4986531;28;20052;-50
2021/08/06 11:47:35;;;;;;;2.60;1.52;;;;;;;;;;5001781;28;20046;-53
2021/08/06 11:50:01;;;;;;;6.93;2.50;;;;;;;;;;5011467;28;20042;-50
2021/08/06 11:52:35;;;;;;;4.13;1.10;;;;;;;;;;5001371;28;20057;-49
2021/08/06 11:55:05;;;;;;;1.50;1.05;;;;;;;;;;5008000;28;20132;-51
2021/08/06 11:57:53;;;;;;;2.17;1.10;;;;;;;;;;4981738;28;20042;-51
2021/08/06 12:00:21;;;;;;;0.95;0.80;;;;;;;;;;4977862;28;20050;-49
2021/08/06 12:02:59;;;;;;;1.48;1.00;;;;;;;;;;4981521;28;20090;-51
2021/08/06 12:05:26;;;;;;;3.15;0.85;;;;;;;;;;4979522;28;20046;-49
2021/08/06 12:07:52;;;;;;;2.25;0.90;;;;;;;;;;4982219;28;20054;-50
2021/08/06 12:10:24;;;;;;;3.20;0.90;;;;;;;;;;4979626;28;20038;-50
2021/08/06 12:12:51;;;;;;;1.45;0.90;;;;;;;;;;4985165;28;20043;-50
2021/08/06 12:15:19;;;;;;;3.40;1.10;;;;;;;;;;4983133;28;20046;-50
2021/08/06 12:17:46;;;;;;;2.72;1.00;;;;;;;;;;4966306;28;20093;-52
2021/08/06 12:20:12;;;;;;;3.10;1.08;;;;;;;;;;4967619;28;20047;-48
2021/08/06 12:22:40;;;;;;;1.42;0.75;;;;;;;;;;4979422;28;20047;-50
2021/08/06 12:25:14;;;;;;;6.50;1.20;;;;;;;;;;4987363;28;20030;-51
2021/08/06 12:27:40;;;;;;;3.90;1.10;;;;;;;;;;4981662;28;20128;-49
2021/08/06 12:30:24;;;;;;;4.03;1.20;;;;;;;;;;4985891;28;20046;-49
2021/08/06 12:32:51;;;;;;;3.75;1.10;;;;;;;;;;4976765;28;20098;-51
2021/08/06 12:35:19;;;;;;;2.92;1.15;;;;;;;;;;4984577;28;20041;-51
2021/08/06 12:37:45;;;;;;;2.75;1.10;;;;;;;;;;4980765;28;20043;-50
2021/08/06 12:40:12;;;;;;;2.75;1.00;;;;;;;;;;4989095;28;20047;-51
2021/08/06 12:42:39;;;;;;;2.50;1.02;;;;;;;;;;4988686;28;20053;-51
2021/08/06 12:45:11;;;;;;;3.13;1.23;;;;;;;;;;4983875;28;20117;-52
2021/08/06 12:47:45;;;;;;;2.33;1.00;;;;;;;;;;4988092;28;20042;-54
2021/08/06 12:50:12;;;;;;;5.13;1.15;;;;;;;;;;5002985;28;20046;-50
2021/08/06 12:52:40;;;;;;;5.18;1.33;;;;;;;;;;4993220;28;20047;-55
2021/08/06 12:55:09;;;;;;;4.43;1.27;;;;;;;;;;4984171;28;20170;-53
2021/08/06 12:57:36;;;;;;;8.75;2.33;;;;;;;;;;4982420;28;20132;-50
2021/08/06 13:00:12;;;;;;;4.90;1.50;;;;;;;;;;4984511;28;20034;-49
2021/08/06 13:02:38;;;;;;;7.13;3.00;;;;;;;;;;4985557;28;20112;-51
2021/08/06 13:05:08;;;;;;;5.10;1.48;;;;;;;;;;4996839;28;20042;-51
2021/08/06 13:07:35;;;;;;;2.30;0.98;;;;;;;;;;5006073;28;20071;-53
2021/08/06 13:10:02;;;;;;;2.30;0.90;;;;;;;;;;4985800;28;20052;-51
2021/08/06 13:12:29;;;;;;;3.70;1.00;;;;;;;;;;4982127;28;20057;-51
2021/08/06 13:14:57;;;;;;;1.73;1.00;;;;;;;;;;5018367;28;20094;-50
2021/08/06 13:17:24;;;;;;;4.18;1.13;;;;;;;;;;5003642;28;20057;-53
2021/08/06 13:19:51;;;;;;;2.50;0.98;;;;;;;;;;4981792;28;20054;-52
2021/08/06 13:22:21;;;;;;;3.90;1.08;;;;;;;;;;4983095;28;20054;-49
2021/08/06 13:24:49;;;;;;;5.63;1.00;;;;;;;;;;4979584;28;20102;-52
2021/08/06 13:27:16;;;;;;;1.00;0.80;;;;;;;;;;4984604;28;20058;-51
2021/08/06 13:29:42;;;;;;;2.13;0.90;;;;;;;;;;4993047;28;20058;-54
2021/08/06 13:32:09;;;;;;;2.65;0.90;;;;;;;;;;4991523;28;20034;-49
2021/08/06 13:34:35;;;;;;;3.88;0.93;;;;;;;;;;4991320;28;20046;-51
2021/08/06 13:37:04;;;;;;;2.05;0.73;;;;;;;;;;5004595;28;20094;-51
2021/08/06 13:39:32;;;;;;;3.10;1.30;;;;;;;;;;4998864;28;20058;-50
2021/08/06 13:41:59;;;;;;;4.15;1.40;;;;;;;;;;4985953;28;20048;-50
2021/08/06 13:44:26;;;;;;;4.85;1.90;;;;;;;;;;4981612;28;20030;-53
2021/08/06 13:46:52;;;;;;;3.50;1.15;;;;;;;;;;4983043;28;20051;-49
2021/08/06 13:49:21;;;;;;;1.50;0.95;;;;;;;;;;4983375;28;20054;-53
2021/08/06 13:51:50;;;;;;;2.38;0.75;;;;;;;;;;5004202;28;20042;-51
2021/08/06 13:54:18;;;;;;;2.65;0.98;;;;;;;;;;4999102;28;20042;-51
2021/08/06 13:56:45;;;;;;;;;;;;;;;;;;5004579;28;20038;-51
2021/08/06 13:59:12;;;;;;;3.17;0.90;;;;;;;;;;5001694;28;19921;-53
2021/08/06 14:01:39;;;;;;;2.42;0.95;;;;;;;;;;4997445;28;20054;-49
2021/08/06 14:04:05;;;;;;;7.72;1.40;;;;;;;;;;5003477;28;20045;-55
2021/08/06 14:06:32;;;;;;;2.35;0.85;;;;;;;;;;4984025;28;20050;-50
2021/08/06 14:08:59;;;;;;;2.67;0.98;;;;;;;;;;4981503;28;20079;-49
2021/08/06 14:11:25;;;;;;;5.35;0.80;;;;;;;;;;4980102;28;20071;-51
2021/08/06 14:13:52;;;;;;;2.00;0.80;;;;;;;;;;4982489;28;20034;-52
2021/08/06 14:16:20;;;;;;;4.45;1.38;;;;;;;;;;4996612;28;20034;-51
2021/08/06 14:18:46;;;;;;;3.85;1.20;;;;;;;;;;4982939;28;20039;-52
2021/08/06 14:21:13;;;;;;;3.30;0.93;;;;;;;;;;4997734;28;20097;-50
2021/08/06 14:23:40;;;;;;;4.35;1.20;;;;;;;;;;4984383;28;20054;-54
2021/08/06 14:26:06;;;;;;;3.47;1.02;;;;;;;;;;4970773;28;20053;-51
2021/08/06 14:28:33;;;;;;;4.72;1.20;;;;;;;;;;4984576;28;20054;-52
2021/08/06 14:31:00;;;;;;;3.63;1.40;;;;;;;;;;4980273;28;20190;-50
2021/08/06 14:33:28;;;;;;;3.38;1.35;;;;;;;;;;4995708;28;20046;-48
2021/08/06 14:35:55;;;;;;;2.40;1.00;;;;;;;;;;4980218;28;20039;-49
2021/08/06 14:38:21;;;;;;;5.88;1.08;;;;;;;;;;5003057;28;20046;-49
2021/08/06 14:40:50;;;;;;;2.83;0.90;;;;;;;;;;5018665;28;20034;-53
2021/08/06 14:43:18;;;;;;;2.65;0.80;;;;;;;;;;4976022;28;20042;-49
2021/08/06 14:45:45;;;;;;;2.80;0.90;;;;;;;;;;4981271;28;20098;-50